sensor_id;sensor_type;location;lat;lon;timestamp;pressure;altitude;pressure_sealevel;temperature;humidity
28004;BME280;15330;51.234;6.754;2023-07-08T00:00:19;101094.47;;;24.05;47.33
28004;BME280;15330;51.234;6.754;2023-07-08T00:02:45;101078.88;;;24.05;47.37
28004;BME280;15330;51.234;6.754;2023-07-08T00:05:12;101090.78;;;23.99;47.91
28004;BME280;15330;51.234;6.754;2023-07-08T00:07:39;101085.47;;;23.93;47.88
28004;BME280;15330;51.234;6.754;2023-07-08T00:10:18;101087.50;;;23.97;47.88
28004;BME280;15330;51.234;6.754;2023-07-08T00:12:45;101073.97;;;23.91;47.95
28004;BME280;15330;51.234;6.754;2023-07-08T00:15:12;101079.84;;;23.99;48.27
28004;BME280;15330;51.234;6.754;2023-07-08T00:17:38;101079.59;;;24.01;48.19
28004;BME280;15330;51.234;6.754;2023-07-08T00:20:35;101080.69;;;24.00;49.00
28004;BME280;15330;51.234;6.754;2023-07-08T00:22:59;101074.06;;;23.96;50.01
28004;BME280;15330;51.234;6.754;2023-07-08T00:25:28;101073.56;;;23.99;50.85
28004;BME280;15330;51.234;6.754;2023-07-08T00:27:53;101071.81;;;23.93;50.98
28004;BME280;15330;51.234;6.754;2023-07-08T00:30:30;101075.38;;;23.93;51.45
28004;BME280;15330;51.234;6.754;2023-07-08T00:32:56;101072.66;;;23.93;51.85
28004;BME280;15330;51.234;6.754;2023-07-08T00:35:36;101074.19;;;23.89;52.12
28004;BME280;15330;51.234;6.754;2023-07-08T00:38:14;101069.81;;;23.88;51.94
28004;BME280;15330;51.234;6.754;2023-07-08T00:40:58;101072.53;;;23.88;51.87
28004;BME280;15330;51.234;6.754;2023-07-08T00:43:35;101075.44;;;23.82;53.02
28004;BME280;15330;51.234;6.754;2023-07-08T00:48:39;101069.59;;;23.78;54.09
28004;BME280;15330;51.234;6.754;2023-07-08T00:51:08;101073.19;;;23.78;54.15
28004;BME280;15330;51.234;6.754;2023-07-08T00:53:38;101068.78;;;23.77;54.71
28004;BME280;15330;51.234;6.754;2023-07-08T00:56:09;101073.69;;;23.75;54.67
28004;BME280;15330;51.234;6.754;2023-07-08T00:58:46;101079.16;;;23.75;54.81
28004;BME280;15330;51.234;6.754;2023-07-08T01:01:14;101073.69;;;23.75;55.48
28004;BME280;15330;51.234;6.754;2023-07-08T01:04:00;101071.59;;;23.66;55.08
28004;BME280;15330;51.234;6.754;2023-07-08T01:06:28;101071.91;;;23.69;55.26
28004;BME280;15330;51.234;6.754;2023-07-08T01:08:58;101066.00;;;23.61;56.09
28004;BME280;15330;51.234;6.754;2023-07-08T01:11:27;101070.41;;;23.62;56.05
28004;BME280;15330;51.234;6.754;2023-07-08T01:13:52;101062.69;;;23.59;56.78
28004;BME280;15330;51.234;6.754;2023-07-08T01:16:18;101059.88;;;23.54;57.30
28004;BME280;15330;51.234;6.754;2023-07-08T01:18:44;101052.34;;;23.49;57.31
28004;BME280;15330;51.234;6.754;2023-07-08T01:21:35;101063.06;;;23.51;57.69
28004;BME280;15330;51.234;6.754;2023-07-08T01:24:07;101056.78;;;23.50;57.98
28004;BME280;15330;51.234;6.754;2023-07-08T01:26:36;101055.72;;;23.51;58.08
28004;BME280;15330;51.234;6.754;2023-07-08T01:29:04;101050.59;;;23.43;58.64
28004;BME280;15330;51.234;6.754;2023-07-08T01:31:29;101047.03;;;23.42;58.26
28004;BME280;15330;51.234;6.754;2023-07-08T01:33:55;101050.00;;;23.41;59.50
28004;BME280;15330;51.234;6.754;2023-07-08T01:36:21;101054.06;;;23.38;59.58
28004;BME280;15330;51.234;6.754;2023-07-08T01:38:47;101045.41;;;23.30;58.94
28004;BME280;15330;51.234;6.754;2023-07-08T01:41:15;101042.84;;;23.12;60.32
28004;BME280;15330;51.234;6.754;2023-07-08T01:43:41;101045.16;;;22.80;62.04
28004;BME280;15330;51.234;6.754;2023-07-08T01:46:18;101048.91;;;23.02;61.80
28004;BME280;15330;51.234;6.754;2023-07-08T01:48:51;101040.47;;;23.15;61.33
28004;BME280;15330;51.234;6.754;2023-07-08T01:51:18;101039.97;;;23.18;61.07
28004;BME280;15330;51.234;6.754;2023-07-08T01:53:44;101047.00;;;23.14;61.56
28004;BME280;15330;51.234;6.754;2023-07-08T01:56:12;101041.41;;;23.21;61.99
28004;BME280;15330;51.234;6.754;2023-07-08T01:58:38;101035.72;;;23.22;62.01
28004;BME280;15330;51.234;6.754;2023-07-08T02:01:04;101043.66;;;23.24;62.05
28004;BME280;15330;51.234;6.754;2023-07-08T02:03:29;101039.28;;;23.23;62.61
28004;BME280;15330;51.234;6.754;2023-07-08T02:05:55;101042.47;;;23.20;63.39
28004;BME280;15330;51.234;6.754;2023-07-08T02:08:20;101033.47;;;23.19;63.14
28004;BME280;15330;51.234;6.754;2023-07-08T02:10:50;101034.53;;;23.06;63.65
28004;BME280;15330;51.234;6.754;2023-07-08T02:13:16;101030.75;;;23.08;63.76
28004;BME280;15330;51.234;6.754;2023-07-08T02:15:42;101024.47;;;23.07;63.95
28004;BME280;15330;51.234;6.754;2023-07-08T02:18:07;101026.50;;;22.88;64.74
28004;BME280;15330;51.234;6.754;2023-07-08T02:20:32;101027.56;;;22.87;65.02
28004;BME280;15330;51.234;6.754;2023-07-08T02:22:58;101019.75;;;22.79;65.49
28004;BME280;15330;51.234;6.754;2023-07-08T02:25:23;101018.78;;;22.97;65.08
28004;BME280;15330;51.234;6.754;2023-07-08T02:27:49;101022.34;;;22.97;64.47
28004;BME280;15330;51.234;6.754;2023-07-08T02:30:14;101013.22;;;22.92;65.98
28004;BME280;15330;51.234;6.754;2023-07-08T02:32:39;101012.16;;;22.93;65.03
28004;BME280;15330;51.234;6.754;2023-07-08T02:35:07;101008.84;;;22.91;65.61
28004;BME280;15330;51.234;6.754;2023-07-08T02:37:32;101006.13;;;22.91;65.69
28004;BME280;15330;51.234;6.754;2023-07-08T02:39:58;101007.78;;;22.92;66.52
28004;BME280;15330;51.234;6.754;2023-07-08T02:42:23;101011.09;;;22.94;66.32
28004;BME280;15330;51.234;6.754;2023-07-08T02:44:49;101001.50;;;22.80;67.17
28004;BME280;15330;51.234;6.754;2023-07-08T02:47:14;101003.63;;;22.89;67.07
28004;BME280;15330;51.234;6.754;2023-07-08T02:49:40;101018.19;;;22.95;67.19
28004;BME280;15330;51.234;6.754;2023-07-08T02:52:05;101011.44;;;22.86;66.74
28004;BME280;15330;51.234;6.754;2023-07-08T02:54:31;101015.59;;;22.88;67.70
28004;BME280;15330;51.234;6.754;2023-07-08T02:56:56;101016.91;;;22.86;67.67
28004;BME280;15330;51.234;6.754;2023-07-08T02:59:22;101013.25;;;22.80;67.58
28004;BME280;15330;51.234;6.754;2023-07-08T03:01:47;101017.28;;;22.78;68.54
28004;BME280;15330;51.234;6.754;2023-07-08T03:04:13;101029.84;;;22.79;68.47
28004;BME280;15330;51.234;6.754;2023-07-08T03:06:42;101024.97;;;22.81;68.80
28004;BME280;15330;51.234;6.754;2023-07-08T03:09:09;101022.59;;;22.73;69.12
28004;BME280;15330;51.234;6.754;2023-07-08T03:11:36;101007.16;;;22.55;69.01
28004;BME280;15330;51.234;6.754;2023-07-08T03:14:02;101022.94;;;22.64;70.15
28004;BME280;15330;51.234;6.754;2023-07-08T03:16:27;101021.03;;;22.53;70.82
28004;BME280;15330;51.234;6.754;2023-07-08T03:18:53;101022.94;;;22.64;70.12
28004;BME280;15330;51.234;6.754;2023-07-08T03:21:18;101021.53;;;22.62;70.15
28004;BME280;15330;51.234;6.754;2023-07-08T03:23:44;101026.63;;;22.70;70.16
28004;BME280;15330;51.234;6.754;2023-07-08T03:26:14;101032.06;;;22.70;70.13
28004;BME280;15330;51.234;6.754;2023-07-08T03:28:41;101029.22;;;22.65;70.64
28004;BME280;15330;51.234;6.754;2023-07-08T03:31:09;101024.25;;;22.62;70.85
28004;BME280;15330;51.234;6.754;2023-07-08T03:33:34;101026.03;;;22.68;70.79
28004;BME280;15330;51.234;6.754;2023-07-08T03:36:01;101023.66;;;22.60;70.78
28004;BME280;15330;51.234;6.754;2023-07-08T03:38:26;101024.50;;;22.60;71.02
28004;BME280;15330;51.234;6.754;2023-07-08T03:40:52;101028.16;;;22.66;71.22
28004;BME280;15330;51.234;6.754;2023-07-08T03:43:17;101025.31;;;22.61;71.34
28004;BME280;15330;51.234;6.754;2023-07-08T03:45:43;101023.44;;;22.61;71.86
28004;BME280;15330;51.234;6.754;2023-07-08T03:48:10;101032.16;;;22.63;71.93
28004;BME280;15330;51.234;6.754;2023-07-08T03:50:36;101023.53;;;22.55;72.44
28004;BME280;15330;51.234;6.754;2023-07-08T03:53:02;101027.69;;;22.57;72.07
28004;BME280;15330;51.234;6.754;2023-07-08T03:55:27;101024.59;;;22.54;72.21
28004;BME280;15330;51.234;6.754;2023-07-08T03:57:53;101027.78;;;22.39;72.52
28004;BME280;15330;51.234;6.754;2023-07-08T04:00:19;101028.84;;;22.38;72.80
28004;BME280;15330;51.234;6.754;2023-07-08T04:02:45;101030.63;;;22.44;73.20
28004;BME280;15330;51.234;6.754;2023-07-08T04:05:15;101033.72;;;22.48;73.07
28004;BME280;15330;51.234;6.754;2023-07-08T04:07:41;101032.88;;;22.47;73.25
28004;BME280;15330;51.234;6.754;2023-07-08T04:10:07;101036.56;;;22.41;73.35
28004;BME280;15330;51.234;6.754;2023-07-08T04:12:33;101046.66;;;22.52;73.55
28004;BME280;15330;51.234;6.754;2023-07-08T04:14:58;101044.75;;;22.41;73.97
28004;BME280;15330;51.234;6.754;2023-07-08T04:17:24;101054.94;;;22.46;73.64
28004;BME280;15330;51.234;6.754;2023-07-08T04:19:50;101046.28;;;22.49;73.72
28004;BME280;15330;51.234;6.754;2023-07-08T04:22:15;101047.22;;;22.54;73.81
28004;BME280;15330;51.234;6.754;2023-07-08T04:24:41;101051.03;;;22.53;74.29
28004;BME280;15330;51.234;6.754;2023-07-08T04:27:12;101052.69;;;22.54;73.85
28004;BME280;15330;51.234;6.754;2023-07-08T04:29:38;101049.00;;;22.49;68.76
28004;BME280;15330;51.234;6.754;2023-07-08T04:32:04;101048.56;;;22.52;67.96
28004;BME280;15330;51.234;6.754;2023-07-08T04:34:29;101047.22;;;22.43;70.37
28004;BME280;15330;51.234;6.754;2023-07-08T04:36:55;101044.25;;;22.44;67.14
28004;BME280;15330;51.234;6.754;2023-07-08T04:39:20;101043.09;;;22.52;65.31
28004;BME280;15330;51.234;6.754;2023-07-08T04:41:46;101042.97;;;22.47;60.13
28004;BME280;15330;51.234;6.754;2023-07-08T04:44:11;101055.41;;;22.54;59.67
28004;BME280;15330;51.234;6.754;2023-07-08T04:46:46;101051.59;;;22.44;59.97
28004;BME280;15330;51.234;6.754;2023-07-08T04:49:12;101052.94;;;22.53;57.86
28004;BME280;15330;51.234;6.754;2023-07-08T04:51:39;101053.19;;;22.51;58.46
28004;BME280;15330;51.234;6.754;2023-07-08T04:54:06;101045.22;;;22.50;56.58
28004;BME280;15330;51.234;6.754;2023-07-08T04:56:38;101040.22;;;22.35;55.79
28004;BME280;15330;51.234;6.754;2023-07-08T04:59:05;101040.25;;;22.47;56.54
28004;BME280;15330;51.234;6.754;2023-07-08T05:01:31;101045.94;;;22.57;56.36
28004;BME280;15330;51.234;6.754;2023-07-08T05:03:56;101038.72;;;22.62;56.91
28004;BME280;15330;51.234;6.754;2023-07-08T05:06:22;101035.03;;;22.68;56.13
28004;BME280;15330;51.234;6.754;2023-07-08T05:08:47;101045.09;;;22.56;54.63
28004;BME280;15330;51.234;6.754;2023-07-08T05:11:12;101041.81;;;22.78;55.09
28004;BME280;15330;51.234;6.754;2023-07-08T05:13:38;101041.81;;;22.78;54.13
28004;BME280;15330;51.234;6.754;2023-07-08T05:16:03;101054.16;;;22.80;53.34
28004;BME280;15330;51.234;6.754;2023-07-08T05:18:29;101043.09;;;22.87;52.26
28004;BME280;15330;51.234;6.754;2023-07-08T05:20:55;101049.03;;;22.95;52.28
28004;BME280;15330;51.234;6.754;2023-07-08T05:23:21;101052.34;;;22.86;52.10
28004;BME280;15330;51.234;6.754;2023-07-08T05:25:47;101052.84;;;22.94;52.19
28004;BME280;15330;51.234;6.754;2023-07-08T05:28:13;101044.50;;;23.13;52.23
28004;BME280;15330;51.234;6.754;2023-07-08T05:30:40;101037.00;;;23.20;51.93
28004;BME280;15330;51.234;6.754;2023-07-08T05:33:06;101047.44;;;23.34;51.59
28004;BME280;15330;51.234;6.754;2023-07-08T05:35:33;101039.94;;;23.41;51.71
28004;BME280;15330;51.234;6.754;2023-07-08T05:37:58;101043.75;;;23.29;51.15
28004;BME280;15330;51.234;6.754;2023-07-08T05:40:24;101038.19;;;23.24;50.93
28004;BME280;15330;51.234;6.754;2023-07-08T05:42:50;101038.03;;;23.54;51.09
28004;BME280;15330;51.234;6.754;2023-07-08T05:45:15;101037.78;;;23.55;50.55
28004;BME280;15330;51.234;6.754;2023-07-08T05:47:40;101040.59;;;23.60;51.21
28004;BME280;15330;51.234;6.754;2023-07-08T05:50:06;101038.63;;;23.56;50.54
28004;BME280;15330;51.234;6.754;2023-07-08T05:52:32;101037.19;;;23.41;50.79
28004;BME280;15330;51.234;6.754;2023-07-08T05:54:57;101030.66;;;23.54;50.95
28004;BME280;15330;51.234;6.754;2023-07-08T05:57:23;101030.34;;;23.27;50.12
28004;BME280;15330;51.234;6.754;2023-07-08T05:59:49;101030.47;;;23.32;49.58
28004;BME280;15330;51.234;6.754;2023-07-08T06:02:16;101032.91;;;23.46;49.52
28004;BME280;15330;51.234;6.754;2023-07-08T06:04:42;101039.75;;;23.60;49.26
28004;BME280;15330;51.234;6.754;2023-07-08T06:07:07;101029.38;;;23.73;49.18
28004;BME280;15330;51.234;6.754;2023-07-08T06:09:33;101040.97;;;23.81;48.71
28004;BME280;15330;51.234;6.754;2023-07-08T06:11:58;101038.13;;;24.04;48.57
28004;BME280;15330;51.234;6.754;2023-07-08T06:14:24;101052.16;;;24.07;47.97
28004;BME280;15330;51.234;6.754;2023-07-08T06:16:50;101054.22;;;24.17;47.40
28004;BME280;15330;51.234;6.754;2023-07-08T06:19:15;101059.06;;;24.43;47.00
28004;BME280;15330;51.234;6.754;2023-07-08T06:21:42;101058.41;;;24.53;47.42
28004;BME280;15330;51.234;6.754;2023-07-08T06:24:08;101051.94;;;24.59;47.60
28004;BME280;15330;51.234;6.754;2023-07-08T06:26:33;101052.25;;;24.79;47.14
28004;BME280;15330;51.234;6.754;2023-07-08T06:28:59;101057.72;;;24.79;47.10
28004;BME280;15330;51.234;6.754;2023-07-08T06:31:24;101053.72;;;24.87;46.23
28004;BME280;15330;51.234;6.754;2023-07-08T06:33:50;101046.84;;;24.84;46.32
28004;BME280;15330;51.234;6.754;2023-07-08T06:36:16;101049.31;;;24.86;45.77
28004;BME280;15330;51.234;6.754;2023-07-08T06:38:41;101052.56;;;25.00;45.26
28004;BME280;15330;51.234;6.754;2023-07-08T06:41:06;101050.97;;;25.04;45.01
28004;BME280;15330;51.234;6.754;2023-07-08T06:43:32;101047.09;;;25.00;44.83
28004;BME280;15330;51.234;6.754;2023-07-08T06:45:57;101044.59;;;24.98;44.37
28004;BME280;15330;51.234;6.754;2023-07-08T06:48:23;101046.19;;;25.16;44.30
28004;BME280;15330;51.234;6.754;2023-07-08T06:50:49;101038.06;;;25.21;43.45
28004;BME280;15330;51.234;6.754;2023-07-08T06:53:15;101034.16;;;25.39;43.92
28004;BME280;15330;51.234;6.754;2023-07-08T06:55:41;101031.66;;;25.59;43.52
28004;BME280;15330;51.234;6.754;2023-07-08T06:58:08;101032.56;;;25.65;43.06
28004;BME280;15330;51.234;6.754;2023-07-08T07:00:34;101033.84;;;25.57;43.03
28004;BME280;15330;51.234;6.754;2023-07-08T07:02:59;101029.31;;;25.68;42.73
28004;BME280;15330;51.234;6.754;2023-07-08T07:05:24;101035.00;;;25.88;43.83
28004;BME280;15330;51.234;6.754;2023-07-08T07:07:50;101031.97;;;25.84;43.17
28004;BME280;15330;51.234;6.754;2023-07-08T07:10:17;101042.41;;;25.87;43.50
28004;BME280;15330;51.234;6.754;2023-07-08T07:12:43;101038.22;;;25.80;43.22
28004;BME280;15330;51.234;6.754;2023-07-08T07:15:08;101035.56;;;25.85;42.66
28004;BME280;15330;51.234;6.754;2023-07-08T07:17:34;101033.50;;;26.02;43.15
28004;BME280;15330;51.234;6.754;2023-07-08T07:20:01;101026.78;;;25.88;43.14
28004;BME280;15330;51.234;6.754;2023-07-08T07:22:27;101040.97;;;25.80;42.81
28004;BME280;15330;51.234;6.754;2023-07-08T07:24:53;101025.31;;;26.07;42.64
28004;BME280;15330;51.234;6.754;2023-07-08T07:27:19;101040.78;;;26.18;42.52
28004;BME280;15330;51.234;6.754;2023-07-08T07:29:47;101038.59;;;26.20;42.34
28004;BME280;15330;51.234;6.754;2023-07-08T07:32:13;101045.38;;;26.40;42.36
28004;BME280;15330;51.234;6.754;2023-07-08T07:34:40;101048.66;;;26.79;42.33
28004;BME280;15330;51.234;6.754;2023-07-08T07:37:08;101043.47;;;26.82;41.40
28004;BME280;15330;51.234;6.754;2023-07-08T07:39:35;101048.75;;;26.52;40.71
28004;BME280;15330;51.234;6.754;2023-07-08T07:42:01;101054.72;;;26.76;41.14
28004;BME280;15330;51.234;6.754;2023-07-08T07:44:26;101049.13;;;27.02;39.68
28004;BME280;15330;51.234;6.754;2023-07-08T07:46:52;101041.75;;;27.08;39.19
28004;BME280;15330;51.234;6.754;2023-07-08T07:49:31;101050.53;;;27.10;39.41
28004;BME280;15330;51.234;6.754;2023-07-08T07:51:57;101043.53;;;27.39;38.65
28004;BME280;15330;51.234;6.754;2023-07-08T07:54:22;101048.31;;;27.59;38.26
28004;BME280;15330;51.234;6.754;2023-07-08T07:56:47;101048.56;;;27.58;37.80
28004;BME280;15330;51.234;6.754;2023-07-08T07:59:13;101046.19;;;27.92;37.90
28004;BME280;15330;51.234;6.754;2023-07-08T08:01:38;101052.22;;;28.04;38.14
28004;BME280;15330;51.234;6.754;2023-07-08T08:04:04;101046.19;;;28.02;37.05
28004;BME280;15330;51.234;6.754;2023-07-08T08:06:29;101043.69;;;27.90;37.15
28004;BME280;15330;51.234;6.754;2023-07-08T08:08:55;101042.31;;;27.98;36.90
28004;BME280;15330;51.234;6.754;2023-07-08T08:11:22;101046.72;;;27.99;36.05
28004;BME280;15330;51.234;6.754;2023-07-08T08:13:47;101051.13;;;27.95;36.00
28004;BME280;15330;51.234;6.754;2023-07-08T08:16:12;101045.41;;;28.22;35.88
28004;BME280;15330;51.234;6.754;2023-07-08T08:18:38;101053.91;;;28.35;36.31
28004;BME280;15330;51.234;6.754;2023-07-08T08:21:03;101064.34;;;28.08;36.44
28004;BME280;15330;51.234;6.754;2023-07-08T08:23:28;101067.94;;;28.13;36.49
28004;BME280;15330;51.234;6.754;2023-07-08T08:25:54;101064.63;;;28.17;37.23
28004;BME280;15330;51.234;6.754;2023-07-08T08:28:19;101066.84;;;28.25;37.37
28004;BME280;15330;51.234;6.754;2023-07-08T08:30:49;101068.25;;;28.37;37.25
28004;BME280;15330;51.234;6.754;2023-07-08T08:33:15;101058.59;;;28.70;36.75
28004;BME280;15330;51.234;6.754;2023-07-08T08:35:42;101070.41;;;28.10;37.23
28004;BME280;15330;51.234;6.754;2023-07-08T08:38:07;101067.69;;;28.51;37.44
28004;BME280;15330;51.234;6.754;2023-07-08T08:40:32;101061.66;;;28.43;37.32
28004;BME280;15330;51.234;6.754;2023-07-08T08:43:10;101078.97;;;28.79;36.25
28004;BME280;15330;51.234;6.754;2023-07-08T08:46:05;101083.09;;;28.92;36.65
28004;BME280;15330;51.234;6.754;2023-07-08T08:48:35;101079.78;;;28.90;35.65
28004;BME280;15330;51.234;6.754;2023-07-08T08:51:12;101065.97;;;29.00;36.62
28004;BME280;15330;51.234;6.754;2023-07-08T08:53:38;101070.97;;;28.93;35.30
28004;BME280;15330;51.234;6.754;2023-07-08T08:56:31;101065.72;;;29.02;35.77
28004;BME280;15330;51.234;6.754;2023-07-08T08:59:19;101063.72;;;29.17;35.62
28004;BME280;15330;51.234;6.754;2023-07-08T09:01:49;101060.94;;;29.28;35.92
28004;BME280;15330;51.234;6.754;2023-07-08T09:04:19;101064.56;;;29.13;35.07
28004;BME280;15330;51.234;6.754;2023-07-08T09:06:47;101077.81;;;29.11;35.21
28004;BME280;15330;51.234;6.754;2023-07-08T09:09:37;101076.72;;;29.07;35.77
28004;BME280;15330;51.234;6.754;2023-07-08T09:12:06;101069.94;;;29.53;35.56
28004;BME280;15330;51.234;6.754;2023-07-08T09:14:36;101071.84;;;29.63;34.71
28004;BME280;15330;51.234;6.754;2023-07-08T09:19:42;101066.09;;;29.54;35.27
28004;BME280;15330;51.234;6.754;2023-07-08T09:22:21;101073.75;;;29.63;34.93
28004;BME280;15330;51.234;6.754;2023-07-08T09:25:03;101069.75;;;29.89;34.94
28004;BME280;15330;51.234;6.754;2023-07-08T09:27:30;101070.88;;;29.88;34.42
28004;BME280;15330;51.234;6.754;2023-07-08T09:29:55;101070.91;;;30.22;34.30
28004;BME280;15330;51.234;6.754;2023-07-08T09:32:27;101075.38;;;30.18;33.59
28004;BME280;15330;51.234;6.754;2023-07-08T09:39:53;101083.84;;;30.32;34.09
28004;BME280;15330;51.234;6.754;2023-07-08T09:42:21;101078.31;;;30.32;34.06
28004;BME280;15330;51.234;6.754;2023-07-08T09:44:48;101070.41;;;30.20;33.95
28004;BME280;15330;51.234;6.754;2023-07-08T09:47:26;101064.59;;;30.55;34.41
28004;BME280;15330;51.234;6.754;2023-07-08T09:49:57;101083.41;;;30.48;34.18
28004;BME280;15330;51.234;6.754;2023-07-08T09:52:23;101060.13;;;30.25;34.69
28004;BME280;15330;51.234;6.754;2023-07-08T09:54:49;101065.84;;;30.34;34.36
28004;BME280;15330;51.234;6.754;2023-07-08T09:57:27;101075.69;;;30.50;34.07
28004;BME280;15330;51.234;6.754;2023-07-08T09:59:58;101066.97;;;30.33;33.53
28004;BME280;15330;51.234;6.754;2023-07-08T10:02:25;101066.44;;;30.65;33.40
28004;BME280;15330;51.234;6.754;2023-07-08T10:04:53;101060.63;;;30.67;33.40
28004;BME280;15330;51.234;6.754;2023-07-08T10:07:19;101063.16;;;30.92;33.84
28004;BME280;15330;51.234;6.754;2023-07-08T10:09:48;101057.13;;;30.85;33.26
28004;BME280;15330;51.234;6.754;2023-07-08T10:12:16;101058.84;;;30.81;32.61
28004;BME280;15330;51.234;6.754;2023-07-08T10:14:54;101076.56;;;31.51;32.55
28004;BME280;15330;51.234;6.754;2023-07-08T10:17:22;101077.91;;;31.54;32.76
28004;BME280;15330;51.234;6.754;2023-07-08T10:19:48;101068.38;;;30.93;33.71
28004;BME280;15330;51.234;6.754;2023-07-08T10:22:36;101064.81;;;31.59;32.93
28004;BME280;15330;51.234;6.754;2023-07-08T10:30:24;101044.31;;;31.23;32.88
28004;BME280;15330;51.234;6.754;2023-07-08T10:35:30;101033.03;;;31.81;32.10
28004;BME280;15330;51.234;6.754;2023-07-08T10:40:48;101039.13;;;31.16;33.17
28004;BME280;15330;51.234;6.754;2023-07-08T10:46:21;101031.19;;;31.10;32.62
28004;BME280;15330;51.234;6.754;2023-07-08T10:51:41;101027.97;;;32.20;32.12
28004;BME280;15330;51.234;6.754;2023-07-08T10:57:17;101030.84;;;31.96;31.80
28004;BME280;15330;51.234;6.754;2023-07-08T10:59:59;101021.72;;;31.96;32.47
28004;BME280;15330;51.234;6.754;2023-07-08T11:07:55;101014.06;;;32.25;31.45
28004;BME280;15330;51.234;6.754;2023-07-08T11:10:28;101026.69;;;32.31;31.48
28004;BME280;15330;51.234;6.754;2023-07-08T11:13:04;101029.75;;;32.30;31.87
28004;BME280;15330;51.234;6.754;2023-07-08T11:15:36;101026.88;;;32.67;31.92
28004;BME280;15330;51.234;6.754;2023-07-08T11:18:11;101022.44;;;32.53;31.69
28004;BME280;15330;51.234;6.754;2023-07-08T11:21:06;101022.53;;;32.61;32.21
28004;BME280;15330;51.234;6.754;2023-07-08T11:23:38;101026.59;;;32.69;30.92
28004;BME280;15330;51.234;6.754;2023-07-08T11:28:31;101022.31;;;32.90;30.70
28004;BME280;15330;51.234;6.754;2023-07-08T11:30:58;101024.03;;;32.40;31.24
28004;BME280;15330;51.234;6.754;2023-07-08T11:33:26;101019.66;;;32.39;30.87
28004;BME280;15330;51.234;6.754;2023-07-08T11:35:53;101019.31;;;33.14;30.87
28004;BME280;15330;51.234;6.754;2023-07-08T11:38:21;101019.03;;;32.88;30.31
28004;BME280;15330;51.234;6.754;2023-07-08T11:40:53;101016.25;;;32.88;29.96
28004;BME280;15330;51.234;6.754;2023-07-08T11:43:21;101007.13;;;33.29;30.29
28004;BME280;15330;51.234;6.754;2023-07-08T11:45:49;101012.00;;;33.59;29.97
28004;BME280;15330;51.234;6.754;2023-07-08T11:48:21;101025.94;;;33.32;30.05
28004;BME280;15330;51.234;6.754;2023-07-08T11:50:48;101013.91;;;33.23;30.79
28004;BME280;15330;51.234;6.754;2023-07-08T11:55:59;101012.25;;;32.94;28.75
28004;BME280;15330;51.234;6.754;2023-07-08T11:58:27;101008.13;;;33.46;29.89
28004;BME280;15330;51.234;6.754;2023-07-08T12:03:37;101005.78;;;33.76;28.74
28004;BME280;15330;51.234;6.754;2023-07-08T12:06:02;101003.94;;;33.22;29.14
28004;BME280;15330;51.234;6.754;2023-07-08T12:08:37;101006.28;;;33.14;28.39
28004;BME280;15330;51.234;6.754;2023-07-08T12:11:10;101000.50;;;34.10;28.49
28004;BME280;15330;51.234;6.754;2023-07-08T12:13:38;100996.03;;;33.65;27.88
28004;BME280;15330;51.234;6.754;2023-07-08T12:16:09;100989.09;;;33.89;28.19
28004;BME280;15330;51.234;6.754;2023-07-08T12:18:38;100994.44;;;33.50;28.36
28004;BME280;15330;51.234;6.754;2023-07-08T12:21:11;100993.88;;;33.39;28.33
28004;BME280;15330;51.234;6.754;2023-07-08T12:23:46;100993.25;;;33.65;27.84
28004;BME280;15330;51.234;6.754;2023-07-08T12:26:12;100990.53;;;33.51;28.00
28004;BME280;15330;51.234;6.754;2023-07-08T12:28:39;100987.56;;;34.06;28.76
28004;BME280;15330;51.234;6.754;2023-07-08T12:31:19;100993.91;;;33.62;27.89
28004;BME280;15330;51.234;6.754;2023-07-08T12:33:45;100982.63;;;33.44;28.52
28004;BME280;15330;51.234;6.754;2023-07-08T12:36:15;100988.91;;;33.50;28.09
28004;BME280;15330;51.234;6.754;2023-07-08T12:38:43;100977.44;;;33.43;27.46
28004;BME280;15330;51.234;6.754;2023-07-08T12:41:12;100973.94;;;33.24;27.43
28004;BME280;15330;51.234;6.754;2023-07-08T12:43:39;100973.44;;;33.08;27.54
28004;BME280;15330;51.234;6.754;2023-07-08T12:46:04;100975.41;;;33.93;27.81
28004;BME280;15330;51.234;6.754;2023-07-08T12:48:34;100966.53;;;33.69;27.56
28004;BME280;15330;51.234;6.754;2023-07-08T12:50:59;100977.69;;;33.91;27.96
28004;BME280;15330;51.234;6.754;2023-07-08T12:53:24;100979.44;;;33.87;27.52
28004;BME280;15330;51.234;6.754;2023-07-08T12:55:52;100977.50;;;33.51;27.59
28004;BME280;15330;51.234;6.754;2023-07-08T12:58:25;100981.34;;;33.42;27.92
28004;BME280;15330;51.234;6.754;2023-07-08T13:00:53;100982.81;;;33.62;28.11
28004;BME280;15330;51.234;6.754;2023-07-08T13:03:22;100973.84;;;33.29;28.24
28004;BME280;15330;51.234;6.754;2023-07-08T13:05:48;100967.97;;;33.80;28.54
28004;BME280;15330;51.234;6.754;2023-07-08T13:08:25;100970.84;;;33.97;28.29
28004;BME280;15330;51.234;6.754;2023-07-08T13:10:56;100977.59;;;34.27;28.23
28004;BME280;15330;51.234;6.754;2023-07-08T13:13:25;100973.22;;;33.68;27.22
28004;BME280;15330;51.234;6.754;2023-07-08T13:15:51;100959.25;;;33.73;26.83
28004;BME280;15330;51.234;6.754;2023-07-08T13:18:20;100970.63;;;33.49;27.54
28004;BME280;15330;51.234;6.754;2023-07-08T13:20:52;100966.16;;;33.62;28.23
28004;BME280;15330;51.234;6.754;2023-07-08T13:23:19;100969.69;;;33.53;28.13
28004;BME280;15330;51.234;6.754;2023-07-08T13:25:48;100964.22;;;33.62;28.33
28004;BME280;15330;51.234;6.754;2023-07-08T13:30:53;100970.06;;;33.61;27.96
28004;BME280;15330;51.234;6.754;2023-07-08T13:33:19;100965.50;;;33.42;28.01
28004;BME280;15330;51.234;6.754;2023-07-08T13:35:45;100963.44;;;33.84;28.87
28004;BME280;15330;51.234;6.754;2023-07-08T13:38:20;100975.47;;;34.02;27.46
28004;BME280;15330;51.234;6.754;2023-07-08T13:40:48;100965.09;;;33.71;27.36